KNRB/NRB METAR and TAF weather

Enter ICAO airport designator
Station Type Date Time Source
KNRB METAR 2020/09/19 23:52 UTC NOAA

KNRB 192352Z AUTO 04025G34KT 10SM SCT021 BKN031 OVC048 25/22 A3000 RMK AO2 PK WND 04036/2305 SLP159 60007 T02500222 10256 20244 52012


Station Type Date Time Source
KNRB Decoded METAR 2020/09/19 23:52 UTC NOAA

MAYPORT NAVAL AIR FACILITY, FL, United States (KNRB) 30-24N 81-25W 4M
Sep 19, 2020 - 07:52 PM EDT / 2020.09.19 2352 UTC
Wind: from the NE (040 degrees) at 29 MPH (25 KT) gusting to 39 MPH (34 KT):0
Visibility: 10 mile(s):0
Sky conditions: overcast
Temperature: 77.0 F (25.0 C)
Dew Point: 72.0 F (22.2 C)
Relative Humidity: 84%
Pressure (altimeter): 30 in. Hg (1015 hPa)
Pressure tendency: 0.04 inches (1.2 hPa) higher than three hours ago
ob: KNRB 192352Z AUTO 04025G34KT 10SM SCT021 BKN031 OVC048 25/22 A3000 RMK AO2 PK WND 04036/2305 SLP159 60007 T02500222 10256 20244 52012
cycle: 0

Station Type Date Time Source
KNRB TAF 2020/09/18 23:59 UTC NOAA

TAF KNRB 1823/1923 32010KT 9999 VCSH SCT015 OVC035 QNH2985INS
FM190200 35010G15KT 9999 SCT010 OVC025 QNH2985INS
FM191400 03015G25KT 6000 BR VCSH BKN015 OVC030 QNH2990INS LAST NO
AMDS AUTOMATED SENSOR METWATCH 1823 TIL 2109 T25/1911Z T28/1919Z FN20022

Example: see airport list